Time;durP1;ratioP1;P1;durP2;ratioP2;P2;SDS_P1;SDS_P2;PMS_P1;PMS_P2;Temp;Humidity;BMP_temperature;BMP_pressure;BME280_temperature;BME280_humidity;BME280_pressure;Samples;Min_cycle;Max_cycle;Signal;HPM_P1;HPM_P2
2021/11/18 00:01:15;;;;;;;35.87;32.10;;;;;;;;;;5056308;28;20446;-81
2021/11/18 00:03:42;;;;;;;44.72;33.72;;;;;;;;;;5056028;28;20446;-81
2021/11/18 00:06:09;;;;;;;42.17;35.07;;;;;;;;;;5055752;28;20195;-82
2021/11/18 00:08:39;;;;;;;39.83;31.33;;;;;;;;;;5055612;28;20458;-81
2021/11/18 00:11:07;;;;;;;35.75;32.08;;;;;;;;;;5055834;28;20431;-81
2021/11/18 00:13:36;;;;;;;43.22;33.67;;;;;;;;;;5055795;28;20195;-81
2021/11/18 00:16:04;;;;;;;37.38;32.60;;;;;;;;;;5055961;28;20214;-81
2021/11/18 00:18:33;;;;;;;41.13;31.40;;;;;;;;;;5055543;28;20625;-82
2021/11/18 00:21:01;;;;;;;43.70;33.13;;;;;;;;;;5055627;28;20184;-82
2021/11/18 00:23:30;;;;;;;36.83;32.40;;;;;;;;;;5055339;28;20461;-81
2021/11/18 00:25:59;;;;;;;39.03;32.40;;;;;;;;;;5055546;28;20946;-81
2021/11/18 00:28:26;;;;;;;42.30;33.07;;;;;;;;;;5055185;28;20428;-81
2021/11/18 00:30:54;;;;;;;43.47;33.50;;;;;;;;;;5037415;28;20453;-81
2021/11/18 00:33:22;;;;;;;39.17;33.57;;;;;;;;;;5055463;28;20446;-81
2021/11/18 00:35:50;;;;;;;41.67;32.40;;;;;;;;;;5055734;28;20472;-81
2021/11/18 00:38:17;;;;;;;40.57;33.63;;;;;;;;;;5054613;28;20978;-81
2021/11/18 00:40:45;;;;;;;37.33;33.40;;;;;;;;;;5059778;28;20928;-81
2021/11/18 00:43:15;;;;;;;39.63;33.33;;;;;;;;;;5060351;28;20432;-82
2021/11/18 00:45:43;;;;;;;38.23;33.33;;;;;;;;;;5060774;28;20446;-81
2021/11/18 00:48:11;;;;;;;43.97;34.50;;;;;;;;;;5058209;28;20778;-81
2021/11/18 00:50:40;;;;;;;40.83;33.20;;;;;;;;;;5060353;28;20214;-81
2021/11/18 00:53:10;;;;;;;44.95;35.88;;;;;;;;;;5059215;28;20417;-82
2021/11/18 00:55:38;;;;;;;44.60;33.63;;;;;;;;;;5058732;28;20219;-81
2021/11/18 00:58:06;;;;;;;43.47;32.30;;;;;;;;;;5058472;28;20515;-81
2021/11/18 01:00:37;;;;;;;41.50;33.03;;;;;;;;;;5040881;28;20450;-81
2021/11/18 01:03:04;;;;;;;43.40;32.17;;;;;;;;;;5060977;28;20477;-80
2021/11/18 01:05:33;;;;;;;37.00;32.38;;;;;;;;;;5060983;28;20469;-81
2021/11/18 01:08:02;;;;;;;36.97;31.08;;;;;;;;;;5059919;28;20205;-80
2021/11/18 01:10:31;;;;;;;36.50;32.60;;;;;;;;;;5059347;28;20227;-81
2021/11/18 01:12:59;;;;;;;40.00;32.10;;;;;;;;;;5060112;28;20418;-81
2021/11/18 01:15:29;;;;;;;34.67;31.00;;;;;;;;;;5059774;28;20514;-81
2021/11/18 01:17:59;;;;;;;42.47;34.30;;;;;;;;;;5059399;28;20449;-81
2021/11/18 01:20:26;;;;;;;35.57;31.67;;;;;;;;;;5059875;28;20437;-81
2021/11/18 01:22:58;;;;;;;37.20;33.40;;;;;;;;;;5060559;28;20416;-80
2021/11/18 01:25:26;;;;;;;42.77;34.23;;;;;;;;;;5061013;28;20440;-81
2021/11/18 01:27:54;;;;;;;42.50;32.50;;;;;;;;;;5060517;28;20524;-81
2021/11/18 01:30:26;;;;;;;42.97;33.47;;;;;;;;;;5041889;28;20943;-81
2021/11/18 01:32:54;;;;;;;35.50;31.93;;;;;;;;;;5060044;28;20770;-81
2021/11/18 01:35:23;;;;;;;39.63;35.33;;;;;;;;;;5059666;28;20432;-81
2021/11/18 01:37:51;;;;;;;38.50;32.37;;;;;;;;;;5041711;28;20456;-82
2021/11/18 01:40:20;;;;;;;37.33;32.23;;;;;;;;;;5063052;28;20445;-81
2021/11/18 01:42:48;;;;;;;40.10;32.87;;;;;;;;;;5048372;28;20442;-82
2021/11/18 01:45:16;;;;;;;44.57;32.77;;;;;;;;;;5057675;28;20440;-82
2021/11/18 01:47:44;;;;;;;40.13;32.83;;;;;;;;;;5059814;28;20438;-81
2021/11/18 01:50:15;;;;;;;34.70;31.03;;;;;;;;;;5060641;28;20412;-81
2021/11/18 01:52:45;;;;;;;44.93;33.37;;;;;;;;;;5059678;28;20459;-82
2021/11/18 01:55:13;;;;;;;38.33;32.23;;;;;;;;;;5056726;28;20438;-81
2021/11/18 01:57:41;;;;;;;46.07;32.27;;;;;;;;;;5061135;28;20416;-82
2021/11/18 02:00:10;;;;;;;36.13;32.43;;;;;;;;;;5039138;28;20801;-82
2021/11/18 02:02:37;;;;;;;35.73;31.80;;;;;;;;;;5057257;28;20859;-82
2021/11/18 02:05:14;;;;;;;37.37;31.37;;;;;;;;;;5057457;28;20413;-82
2021/11/18 02:07:42;;;;;;;37.87;33.13;;;;;;;;;;5056623;28;20476;-81
2021/11/18 02:10:12;;;;;;;35.03;31.57;;;;;;;;;;5056905;28;20481;-81
2021/11/18 02:12:40;;;;;;;35.47;31.87;;;;;;;;;;5058500;28;20405;-82
2021/11/18 02:15:23;;;;;;;36.63;31.93;;;;;;;;;;5057295;28;20416;-81
2021/11/18 02:17:50;;;;;;;37.43;30.27;;;;;;;;;;5057507;28;20442;-80
2021/11/18 02:20:20;;;;;;;36.80;31.90;;;;;;;;;;5057785;28;20442;-82
2021/11/18 02:22:48;;;;;;;35.10;31.53;;;;;;;;;;5056778;28;20446;-82
2021/11/18 02:25:16;;;;;;;36.93;32.27;;;;;;;;;;5057594;28;20459;-82
2021/11/18 02:27:44;;;;;;;34.93;30.23;;;;;;;;;;5059817;28;20444;-81
2021/11/18 02:30:12;;;;;;;36.43;32.00;;;;;;;;;;5058303;28;20441;-82
2021/11/18 02:32:41;;;;;;;36.57;32.40;;;;;;;;;;5056228;28;20439;-81
2021/11/18 02:35:10;;;;;;;34.97;31.20;;;;;;;;;;5057673;28;20435;-82
2021/11/18 02:37:39;;;;;;;37.40;31.67;;;;;;;;;;5056349;28;20468;-82
2021/11/18 02:40:09;;;;;;;34.00;30.70;;;;;;;;;;5056780;28;20961;-81
2021/11/18 02:42:37;;;;;;;36.03;32.30;;;;;;;;;;5055663;28;20441;-82
2021/11/18 02:45:05;;;;;;;34.27;30.83;;;;;;;;;;5056204;28;20447;-82
2021/11/18 02:47:32;;;;;;;34.47;30.93;;;;;;;;;;5058130;28;20861;-81
2021/11/18 02:50:00;;;;;;;35.30;31.33;;;;;;;;;;5060637;28;20438;-80
2021/11/18 02:52:28;;;;;;;35.13;30.90;;;;;;;;;;5059170;28;20517;-81
2021/11/18 02:54:57;;;;;;;43.87;31.93;;;;;;;;;;5059431;28;20466;-82
2021/11/18 02:57:25;;;;;;;34.20;30.50;;;;;;;;;;5058454;28;20949;-81
2021/11/18 02:59:52;;;;;;;36.77;31.30;;;;;;;;;;5059873;28;20431;-82
2021/11/18 03:02:20;;;;;;;35.50;31.70;;;;;;;;;;5059015;28;20543;-81
2021/11/18 03:04:47;;;;;;;33.63;29.70;;;;;;;;;;5059569;28;20416;-81
2021/11/18 03:07:15;;;;;;;39.80;31.13;;;;;;;;;;5059801;28;20440;-82
2021/11/18 03:09:43;;;;;;;33.40;29.87;;;;;;;;;;5057431;28;20460;-81
2021/11/18 03:12:13;;;;;;;35.77;30.83;;;;;;;;;;5059395;28;20503;-82
2021/11/18 03:14:41;;;;;;;41.23;32.70;;;;;;;;;;5058698;28;20429;-81
2021/11/18 03:17:08;;;;;;;35.20;30.77;;;;;;;;;;5059079;28;20866;-82
2021/11/18 03:19:35;;;;;;;35.70;31.10;;;;;;;;;;5061283;28;20773;-82
2021/11/18 03:22:03;;;;;;;33.90;30.27;;;;;;;;;;5062175;28;20424;-82
2021/11/18 03:24:30;;;;;;;42.67;32.13;;;;;;;;;;5060921;28;20452;-81
2021/11/18 03:26:58;;;;;;;34.57;31.17;;;;;;;;;;5056731;28;20430;-81
2021/11/18 03:29:27;;;;;;;34.88;30.70;;;;;;;;;;5055551;28;20402;-81
2021/11/18 03:31:55;;;;;;;33.23;29.53;;;;;;;;;;5055630;28;20601;-81
2021/11/18 03:34:24;;;;;;;34.03;30.37;;;;;;;;;;5055638;28;20445;-82
2021/11/18 03:36:51;;;;;;;37.50;31.43;;;;;;;;;;5055426;28;20474;-81
2021/11/18 03:39:20;;;;;;;35.97;31.93;;;;;;;;;;5055540;28;20438;-81
2021/11/18 03:41:49;;;;;;;34.63;31.13;;;;;;;;;;5055535;28;20484;-81
2021/11/18 03:44:18;;;;;;;37.13;32.80;;;;;;;;;;5055308;28;20420;-81
2021/11/18 03:46:48;;;;;;;35.93;32.20;;;;;;;;;;5055297;28;20413;-81
2021/11/18 03:49:16;;;;;;;36.70;30.30;;;;;;;;;;5055657;28;20420;-80
2021/11/18 03:51:44;;;;;;;38.60;31.37;;;;;;;;;;5061313;28;20422;-81
2021/11/18 03:54:13;;;;;;;34.67;28.97;;;;;;;;;;5061545;28;20768;-80
2021/11/18 03:56:41;;;;;;;32.33;29.20;;;;;;;;;;5066825;28;20486;-81
2021/11/18 03:59:09;;;;;;;31.50;28.27;;;;;;;;;;5068361;28;20419;-81
2021/11/18 04:01:39;;;;;;;32.30;29.00;;;;;;;;;;5064915;28;20443;-81
2021/11/18 04:04:09;;;;;;;34.33;28.70;;;;;;;;;;5056744;28;20416;-81
2021/11/18 04:06:38;;;;;;;35.93;32.03;;;;;;;;;;5037762;28;20478;-81
2021/11/18 04:09:06;;;;;;;32.30;29.07;;;;;;;;;;5056067;28;20477;-81
2021/11/18 04:11:34;;;;;;;34.30;30.37;;;;;;;;;;5056481;28;20420;-81
2021/11/18 04:14:01;;;;;;;35.37;29.87;;;;;;;;;;5056258;28;20508;-81
2021/11/18 04:16:29;;;;;;;39.00;29.95;;;;;;;;;;5055088;28;20457;-81
2021/11/18 04:18:56;;;;;;;36.40;31.53;;;;;;;;;;5055564;28;20245;-81
2021/11/18 04:21:28;;;;;;;35.07;31.50;;;;;;;;;;5054812;28;20453;-81
2021/11/18 04:23:55;;;;;;;38.78;32.30;;;;;;;;;;5054224;28;21053;-81
2021/11/18 04:26:23;;;;;;;37.50;31.20;;;;;;;;;;5038988;28;20672;-81
2021/11/18 04:28:51;;;;;;;40.67;32.03;;;;;;;;;;5056605;28;20424;-81
2021/11/18 04:31:19;;;;;;;35.47;30.53;;;;;;;;;;5057053;28;20453;-80
2021/11/18 04:33:46;;;;;;;40.03;32.33;;;;;;;;;;5057106;28;20412;-78
2021/11/18 04:36:15;;;;;;;40.87;32.70;;;;;;;;;;5065455;28;20452;-82
2021/11/18 04:38:44;;;;;;;38.07;34.10;;;;;;;;;;5067160;28;20432;-80
2021/11/18 04:41:12;;;;;;;36.07;31.90;;;;;;;;;;5063354;28;20830;-81
2021/11/18 04:43:40;;;;;;;33.83;30.67;;;;;;;;;;5061511;28;20420;-81
2021/11/18 04:46:09;;;;;;;37.28;31.25;;;;;;;;;;5055796;28;20408;-81
2021/11/18 04:48:37;;;;;;;33.30;30.30;;;;;;;;;;5055828;28;20253;-81
2021/11/18 04:51:04;;;;;;;32.67;29.43;;;;;;;;;;5056970;28;20402;-81
2021/11/18 04:53:32;;;;;;;32.07;29.07;;;;;;;;;;5054110;28;20413;-81
2021/11/18 04:56:02;;;;;;;35.60;31.80;;;;;;;;;;5054539;28;20837;-81
2021/11/18 04:58:29;;;;;;;34.70;31.47;;;;;;;;;;5053944;28;20549;-80
2021/11/18 05:00:57;;;;;;;39.13;32.67;;;;;;;;;;5055457;28;20438;-79
2021/11/18 05:03:26;;;;;;;32.33;29.10;;;;;;;;;;5059360;28;20405;-80
2021/11/18 05:05:53;;;;;;;34.50;30.90;;;;;;;;;;5054712;28;20416;-80
2021/11/18 05:08:21;;;;;;;34.17;30.60;;;;;;;;;;5054428;28;20413;-80
2021/11/18 05:10:49;;;;;;;32.33;29.23;;;;;;;;;;5056089;28;20452;-81
2021/11/18 05:13:19;;;;;;;32.63;29.13;;;;;;;;;;5054656;28;20414;-80
2021/11/18 05:15:48;;;;;;;33.77;30.27;;;;;;;;;;5038104;28;20433;-80
2021/11/18 05:18:15;;;;;;;33.53;30.40;;;;;;;;;;5053978;28;20489;-81
2021/11/18 05:20:44;;;;;;;34.65;31.15;;;;;;;;;;5054255;28;20219;-81
2021/11/18 05:23:13;;;;;;;32.30;29.03;;;;;;;;;;5053894;28;20251;-81
2021/11/18 05:25:40;;;;;;;32.37;28.97;;;;;;;;;;5053852;28;20434;-81
2021/11/18 05:28:07;;;;;;;34.47;30.73;;;;;;;;;;5053992;28;20427;-81
2021/11/18 05:30:36;;;;;;;32.30;29.23;;;;;;;;;;5054455;28;20897;-80
2021/11/18 05:33:06;;;;;;;36.10;32.20;;;;;;;;;;5056246;28;20453;-79
2021/11/18 05:35:34;;;;;;;35.00;31.27;;;;;;;;;;5054595;28;20456;-79
2021/11/18 05:38:01;;;;;;;33.43;30.00;;;;;;;;;;5054439;28;20485;-80
2021/11/18 05:40:28;;;;;;;39.37;31.23;;;;;;;;;;5054000;28;20417;-80
2021/11/18 05:42:56;;;;;;;37.73;31.40;;;;;;;;;;5055520;28;20419;-81
2021/11/18 05:45:25;;;;;;;37.70;32.37;;;;;;;;;;5054815;28;20431;-80
2021/11/18 05:47:53;;;;;;;37.57;31.33;;;;;;;;;;5054565;28;20442;-80
2021/11/18 05:50:22;;;;;;;46.37;30.93;;;;;;;;;;5054780;28;20409;-80
2021/11/18 05:52:49;;;;;;;39.00;32.60;;;;;;;;;;5054409;28;20438;-80
2021/11/18 05:55:18;;;;;;;37.73;31.87;;;;;;;;;;5054964;28;20902;-80
2021/11/18 05:57:46;;;;;;;39.13;32.07;;;;;;;;;;5053164;28;20460;-81
2021/11/18 06:00:16;;;;;;;36.73;32.23;;;;;;;;;;5053281;28;20450;-80
2021/11/18 06:02:50;;;;;;;41.60;31.87;;;;;;;;;;5054693;28;20765;-78
2021/11/18 06:05:23;;;;;;;47.10;32.80;;;;;;;;;;5057331;28;20416;-79
2021/11/18 06:07:51;;;;;;;36.93;32.73;;;;;;;;;;5057262;28;20431;-81
2021/11/18 06:10:18;;;;;;;35.37;31.13;;;;;;;;;;5059147;28;20529;-80
2021/11/18 06:12:46;;;;;;;41.57;34.43;;;;;;;;;;5061289;28;20501;-80
2021/11/18 06:15:15;;;;;;;40.77;31.10;;;;;;;;;;5042029;28;20453;-80
2021/11/18 06:17:43;;;;;;;41.13;34.53;;;;;;;;;;5055749;28;20544;-80
2021/11/18 06:20:12;;;;;;;38.50;32.50;;;;;;;;;;5062591;28;20436;-81
2021/11/18 06:22:42;;;;;;;39.20;35.07;;;;;;;;;;5043745;28;20488;-81
2021/11/18 06:25:12;;;;;;;36.50;32.60;;;;;;;;;;5037936;28;20942;-81
2021/11/18 06:27:43;;;;;;;46.40;33.83;;;;;;;;;;5055102;28;20439;-81
2021/11/18 06:30:12;;;;;;;48.38;34.70;;;;;;;;;;5057818;28;20927;-81
2021/11/18 06:32:40;;;;;;;38.70;34.73;;;;;;;;;;5056794;28;20199;-80
2021/11/18 06:35:08;;;;;;;54.50;33.67;;;;;;;;;;5056527;28;20881;-81
2021/11/18 06:37:35;;;;;;;40.40;34.03;;;;;;;;;;5056379;28;20493;-81
2021/11/18 06:40:04;;;;;;;41.27;33.77;;;;;;;;;;5056189;28;20442;-79
2021/11/18 06:42:32;;;;;;;43.33;35.03;;;;;;;;;;5056925;28;20830;-80
2021/11/18 06:44:59;;;;;;;45.43;36.30;;;;;;;;;;5056633;28;20824;-80
2021/11/18 06:47:27;;;;;;;42.00;36.08;;;;;;;;;;5056315;28;20441;-80
2021/11/18 06:49:55;;;;;;;44.78;33.88;;;;;;;;;;5056384;28;20203;-80
2021/11/18 06:52:22;;;;;;;42.13;34.60;;;;;;;;;;5056331;28;20308;-81
2021/11/18 06:54:50;;;;;;;50.47;35.77;;;;;;;;;;5056950;28;20927;-80
2021/11/18 06:57:19;;;;;;;45.30;33.93;;;;;;;;;;5073188;28;20508;-81
2021/11/18 06:59:46;;;;;;;53.43;35.23;;;;;;;;;;5076239;28;20506;-81
2021/11/18 07:02:14;;;;;;;49.73;36.27;;;;;;;;;;5070411;28;20539;-80
2021/11/18 07:04:43;;;;;;;49.03;35.20;;;;;;;;;;5076097;28;20448;-81
2021/11/18 07:07:10;;;;;;;45.27;34.97;;;;;;;;;;5075970;28;20438;-81
2021/11/18 07:09:38;;;;;;;39.50;33.70;;;;;;;;;;5066697;28;20451;-81
2021/11/18 07:12:06;;;;;;;39.50;34.60;;;;;;;;;;5055804;28;20461;-81
2021/11/18 07:14:35;;;;;;;47.60;35.37;;;;;;;;;;5055752;28;20449;-78
2021/11/18 07:17:04;;;;;;;37.57;33.67;;;;;;;;;;5054730;28;20417;-77
2021/11/18 07:19:31;;;;;;;40.20;35.93;;;;;;;;;;5072936;28;20539;-76
2021/11/18 07:21:59;;;;;;;48.73;35.30;;;;;;;;;;5075385;28;20430;-77
2021/11/18 07:24:26;;;;;;;41.43;32.87;;;;;;;;;;5075444;28;20436;-76
2021/11/18 07:26:54;;;;;;;48.30;34.50;;;;;;;;;;5075311;28;20491;-78
2021/11/18 07:29:22;;;;;;;43.17;33.20;;;;;;;;;;5075310;28;20419;-77
2021/11/18 07:31:51;;;;;;;37.37;33.30;;;;;;;;;;5075502;28;20494;-77
2021/11/18 07:34:18;;;;;;;39.23;35.17;;;;;;;;;;5071977;28;20435;-82
2021/11/18 07:36:46;;;;;;;37.93;33.70;;;;;;;;;;5075516;28;20437;-77
2021/11/18 07:39:14;;;;;;;44.17;34.13;;;;;;;;;;5074346;28;20482;-77
2021/11/18 07:41:41;;;;;;;39.08;33.92;;;;;;;;;;5075118;28;20927;-77
2021/11/18 07:44:09;;;;;;;39.13;34.93;;;;;;;;;;5075541;28;20225;-77
2021/11/18 07:46:37;;;;;;;38.63;32.47;;;;;;;;;;5074955;28;20764;-78
2021/11/18 07:49:06;;;;;;;42.10;35.53;;;;;;;;;;5059460;28;20450;-78
2021/11/18 07:51:33;;;;;;;38.87;34.67;;;;;;;;;;5054792;28;20437;-77
2021/11/18 07:54:01;;;;;;;37.63;33.57;;;;;;;;;;5054863;28;20530;-77
2021/11/18 07:56:30;;;;;;;39.40;33.20;;;;;;;;;;5055000;28;20456;-77
2021/11/18 07:58:57;;;;;;;37.00;33.00;;;;;;;;;;5054681;28;20558;-77
2021/11/18 08:01:25;;;;;;;44.67;34.50;;;;;;;;;;5054689;28;20437;-77
2021/11/18 08:03:52;;;;;;;47.57;34.10;;;;;;;;;;5054834;28;20438;-78
2021/11/18 08:06:22;;;;;;;37.58;33.67;;;;;;;;;;5054750;28;20416;-77
2021/11/18 08:08:51;;;;;;;41.00;34.57;;;;;;;;;;5054785;28;20200;-78
2021/11/18 08:11:20;;;;;;;38.10;32.70;;;;;;;;;;5054930;28;20753;-79
2021/11/18 08:13:48;;;;;;;41.75;35.13;;;;;;;;;;5054541;28;20200;-78
2021/11/18 08:16:16;;;;;;;42.37;34.50;;;;;;;;;;5054371;28;20261;-78
2021/11/18 08:18:43;;;;;;;38.27;31.83;;;;;;;;;;5066612;28;20482;-78
2021/11/18 08:21:11;;;;;;;37.53;33.73;;;;;;;;;;5074379;28;20416;-79
2021/11/18 08:23:40;;;;;;;37.40;33.25;;;;;;;;;;5074741;28;20512;-79
2021/11/18 08:26:09;;;;;;;43.27;34.10;;;;;;;;;;5074336;28;20194;-78
2021/11/18 08:28:36;;;;;;;40.90;34.00;;;;;;;;;;5074101;28;20440;-78
2021/11/18 08:31:04;;;;;;;46.53;34.60;;;;;;;;;;5074483;28;20407;-79
2021/11/18 08:33:32;;;;;;;42.93;33.90;;;;;;;;;;5074033;28;20412;-78
2021/11/18 08:35:59;;;;;;;39.67;33.00;;;;;;;;;;5074275;28;20831;-78
2021/11/18 08:38:27;;;;;;;43.30;34.77;;;;;;;;;;5074037;28;20485;-78
2021/11/18 08:40:58;;;;;;;42.50;34.90;;;;;;;;;;5073990;28;20893;-77
2021/11/18 08:43:26;;;;;;;51.13;39.17;;;;;;;;;;5074286;28;20447;-78
2021/11/18 08:45:53;;;;;;;40.60;33.60;;;;;;;;;;5073852;28;20437;-77
2021/11/18 08:48:21;;;;;;;42.57;32.83;;;;;;;;;;5064309;28;20423;-78
2021/11/18 08:50:51;;;;;;;43.30;35.00;;;;;;;;;;5053554;28;20442;-78
2021/11/18 08:53:18;;;;;;;47.83;35.60;;;;;;;;;;5053726;28;20440;-78
2021/11/18 08:55:46;;;;;;;39.50;34.80;;;;;;;;;;5053527;28;20448;-78
2021/11/18 08:58:16;;;;;;;40.20;32.57;;;;;;;;;;5053612;28;21293;-78
2021/11/18 09:00:46;;;;;;;42.43;33.10;;;;;;;;;;5053888;28;20416;-80
2021/11/18 09:03:13;;;;;;;37.00;29.70;;;;;;;;;;5053717;28;20412;-78
2021/11/18 09:05:40;;;;;;;32.17;28.57;;;;;;;;;;5053540;28;20413;-77
2021/11/18 09:08:08;;;;;;;36.37;29.80;;;;;;;;;;5053777;28;20449;-77
2021/11/18 09:10:36;;;;;;;42.73;30.57;;;;;;;;;;5055512;28;20524;-74
2021/11/18 09:13:04;;;;;;;33.93;29.57;;;;;;;;;;5055707;28;20466;-77
2021/11/18 09:15:34;;;;;;;41.10;31.97;;;;;;;;;;5053422;28;20796;-76
2021/11/18 09:18:01;;;;;;;39.33;29.00;;;;;;;;;;5053435;28;20482;-76
2021/11/18 09:20:29;;;;;;;35.43;29.50;;;;;;;;;;5053618;28;20445;-77
2021/11/18 09:22:58;;;;;;;27.90;25.10;;;;;;;;;;5053301;28;20409;-77
2021/11/18 09:25:27;;;;;;;36.97;29.93;;;;;;;;;;5053457;28;20440;-76
2021/11/18 09:27:55;;;;;;;36.23;29.03;;;;;;;;;;5053172;28;20968;-77
2021/11/18 09:30:23;;;;;;;32.47;28.47;;;;;;;;;;5052980;28;20924;-76
2021/11/18 09:32:52;;;;;;;31.83;27.10;;;;;;;;;;5053088;28;20455;-76
2021/11/18 09:35:21;;;;;;;36.70;30.30;;;;;;;;;;5053237;28;20484;-77
2021/11/18 09:37:49;;;;;;;36.70;29.80;;;;;;;;;;5052778;28;20912;-76
2021/11/18 09:40:18;;;;;;;37.10;29.73;;;;;;;;;;5052865;28;20414;-77
2021/11/18 09:42:57;;;;;;;31.83;28.27;;;;;;;;;;5053212;28;20421;-77
2021/11/18 09:45:25;;;;;;;30.70;27.27;;;;;;;;;;5052808;28;20462;-77
2021/11/18 09:48:11;;;;;;;36.00;29.07;;;;;;;;;;5053061;28;20446;-76
2021/11/18 09:50:57;;;;;;;34.93;27.53;;;;;;;;;;5053084;28;20427;-76
2021/11/18 09:53:31;;;;;;;27.43;24.67;;;;;;;;;;5053010;28;20480;-77
2021/11/18 09:56:06;;;;;;;29.93;26.90;;;;;;;;;;5052761;28;20767;-77
2021/11/18 09:58:39;;;;;;;39.20;29.13;;;;;;;;;;5052635;28;20492;-76
2021/11/18 10:01:24;;;;;;;33.90;28.50;;;;;;;;;;5052640;28;20481;-76
2021/11/18 10:03:55;;;;;;;38.07;29.13;;;;;;;;;;5052308;28;20898;-77
2021/11/18 10:06:27;;;;;;;41.40;29.87;;;;;;;;;;5052789;28;20875;-77
2021/11/18 10:08:57;;;;;;;40.13;28.83;;;;;;;;;;5052608;28;20843;-76
2021/11/18 10:11:28;;;;;;;37.50;29.33;;;;;;;;;;5052560;28;20485;-77
2021/11/18 10:14:05;;;;;;;30.73;27.43;;;;;;;;;;5052460;28;20441;-76
2021/11/18 10:16:40;;;;;;;33.80;30.20;;;;;;;;;;5052236;28;20444;-77
2021/11/18 10:19:09;;;;;;;36.00;29.67;;;;;;;;;;5052394;28;20495;-77
2021/11/18 10:21:41;;;;;;;55.47;32.00;;;;;;;;;;5052673;28;20432;-77
2021/11/18 10:24:13;;;;;;;41.50;29.67;;;;;;;;;;5052463;28;20412;-78
2021/11/18 10:26:42;;;;;;;33.45;30.05;;;;;;;;;;5052209;28;20740;-76
2021/11/18 10:29:11;;;;;;;33.63;29.93;;;;;;;;;;5052629;28;20218;-76
2021/11/18 10:31:50;;;;;;;36.00;29.50;;;;;;;;;;5052301;28;20439;-77
2021/11/18 10:34:19;;;;;;;39.40;30.67;;;;;;;;;;5052317;28;20979;-77
2021/11/18 10:36:53;;;;;;;43.27;31.60;;;;;;;;;;5052636;28;20405;-77
2021/11/18 10:39:24;;;;;;;30.57;27.10;;;;;;;;;;5052192;28;20448;-77
2021/11/18 10:41:53;;;;;;;34.30;26.00;;;;;;;;;;5052121;28;20879;-77
2021/11/18 10:44:23;;;;;;;33.77;30.27;;;;;;;;;;5052184;28;20851;-77
2021/11/18 10:46:53;;;;;;;43.13;30.13;;;;;;;;;;5052299;28;20442;-77
2021/11/18 10:49:34;;;;;;;36.40;29.23;;;;;;;;;;5052188;28;20413;-77
2021/11/18 10:52:06;;;;;;;31.97;28.67;;;;;;;;;;5052108;28;20953;-76
2021/11/18 10:54:42;;;;;;;37.60;30.13;;;;;;;;;;5052448;28;20415;-76
2021/11/18 10:57:14;;;;;;;26.47;23.77;;;;;;;;;;5052329;28;20959;-77
2021/11/18 10:59:42;;;;;;;42.40;26.43;;;;;;;;;;5051984;28;20503;-77
2021/11/18 11:02:23;;;;;;;34.27;28.57;;;;;;;;;;5034246;28;20515;-77
2021/11/18 11:04:51;;;;;;;36.47;29.47;;;;;;;;;;5051870;28;20457;-77
2021/11/18 11:07:31;;;;;;;29.43;25.00;;;;;;;;;;5034636;28;20449;-76
2021/11/18 11:09:59;;;;;;;50.07;31.07;;;;;;;;;;5051833;28;20524;-77
2021/11/18 11:12:28;;;;;;;31.47;27.10;;;;;;;;;;5052183;28;20777;-77
2021/11/18 11:15:03;;;;;;;38.97;31.40;;;;;;;;;;5053061;28;20932;-78
2021/11/18 11:17:41;;;;;;;39.07;32.60;;;;;;;;;;5055840;28;20838;-77
2021/11/18 11:20:11;;;;;;;36.13;31.07;;;;;;;;;;5055796;28;20490;-77
2021/11/18 11:22:42;;;;;;;38.13;32.63;;;;;;;;;;5055704;28;20438;-77
2021/11/18 11:25:33;;;;;;;29.20;26.60;;;;;;;;;;5055692;28;20421;-77
2021/11/18 11:28:12;;;;;;;37.60;28.80;;;;;;;;;;5036012;28;20988;-77
2021/11/18 11:30:43;;;;;;;34.83;30.43;;;;;;;;;;5055465;28;20427;-76
2021/11/18 11:33:12;;;;;;;36.67;28.87;;;;;;;;;;5055769;28;20427;-76
2021/11/18 11:35:44;;;;;;;27.63;25.10;;;;;;;;;;5055190;28;20441;-76
2021/11/18 11:38:34;;;;;;;33.47;29.80;;;;;;;;;;5037671;28;20443;-79
2021/11/18 11:41:11;;;;;;;31.00;27.90;;;;;;;;;;5055455;28;20451;-79
2021/11/18 11:43:41;;;;;;;42.50;29.90;;;;;;;;;;5055462;28;20446;-79
2021/11/18 11:46:17;;;;;;;29.70;26.80;;;;;;;;;;5055048;28;20943;-79
2021/11/18 11:49:00;;;;;;;31.17;27.40;;;;;;;;;;5055059;28;20434;-79
2021/11/18 11:51:37;;;;;;;32.40;28.90;;;;;;;;;;5055222;28;20514;-79
2021/11/18 11:54:25;;;;;;;32.70;29.47;;;;;;;;;;5055178;28;20413;-79
2021/11/18 11:56:54;;;;;;;35.17;30.60;;;;;;;;;;5054758;28;20446;-79
2021/11/18 11:59:23;;;;;;;34.10;30.43;;;;;;;;;;5055021;28;20891;-79
2021/11/18 12:01:55;;;;;;;35.73;27.90;;;;;;;;;;5054714;28;20434;-80
2021/11/18 12:04:24;;;;;;;32.30;29.13;;;;;;;;;;5054535;28;20560;-78
2021/11/18 12:06:55;;;;;;;32.30;27.47;;;;;;;;;;5054549;28;20833;-79
2021/11/18 12:09:27;;;;;;;34.03;27.77;;;;;;;;;;5054628;28;20468;-79
2021/11/18 12:11:57;;;;;;;29.60;26.80;;;;;;;;;;5054740;28;20465;-79
2021/11/18 12:14:28;;;;;;;29.10;26.30;;;;;;;;;;5054485;28;20779;-78
2021/11/18 12:16:57;;;;;;;32.03;26.33;;;;;;;;;;5054677;28;20889;-78
2021/11/18 12:19:31;;;;;;;31.13;27.77;;;;;;;;;;5054331;28;20465;-80
2021/11/18 12:22:00;;;;;;;27.60;25.00;;;;;;;;;;5054522;28;21292;-80
2021/11/18 12:24:49;;;;;;;29.00;26.27;;;;;;;;;;5054745;28;20784;-79
2021/11/18 12:27:27;;;;;;;29.30;26.17;;;;;;;;;;5053904;28;20452;-83
2021/11/18 12:30:11;;;;;;;27.20;24.40;;;;;;;;;;5036319;28;20446;-78
2021/11/18 12:32:42;;;;;;;29.23;25.63;;;;;;;;;;5054182;28;20823;-78
2021/11/18 12:35:15;;;;;;;29.43;26.37;;;;;;;;;;5054429;28;20479;-79
2021/11/18 12:38:06;;;;;;;30.73;27.17;;;;;;;;;;5054184;28;20447;-78
2021/11/18 12:40:44;;;;;;;33.70;26.20;;;;;;;;;;5034245;28;20485;-78
2021/11/18 12:43:18;;;;;;;25.50;22.90;;;;;;;;;;5054278;28;20446;-77
2021/11/18 12:45:52;;;;;;;27.23;24.50;;;;;;;;;;5054192;28;20438;-78
2021/11/18 12:48:21;;;;;;;28.67;25.10;;;;;;;;;;5054080;28;20506;-77
2021/11/18 12:50:50;;;;;;;29.33;26.43;;;;;;;;;;5054185;28;20416;-79
2021/11/18 12:53:35;;;;;;;32.93;26.80;;;;;;;;;;5035801;28;20429;-78
2021/11/18 12:56:18;;;;;;;31.47;25.73;;;;;;;;;;5053682;28;20922;-78
2021/11/18 12:59:03;;;;;;;26.00;23.40;;;;;;;;;;5053602;28;20416;-78
2021/11/18 13:01:52;;;;;;;26.37;23.60;;;;;;;;;;5053938;28;20453;-77
2021/11/18 13:04:40;;;;;;;33.10;25.90;;;;;;;;;;5053583;28;20413;-77
2021/11/18 13:07:09;;;;;;;32.97;26.50;;;;;;;;;;5047305;28;20434;-78
2021/11/18 13:09:55;;;;;;;27.73;24.93;;;;;;;;;;5035433;28;20481;-77
2021/11/18 13:12:27;;;;;;;25.87;22.67;;;;;;;;;;5053722;28;20446;-77
2021/11/18 13:14:57;;;;;;;26.77;24.17;;;;;;;;;;5053145;28;20917;-78
2021/11/18 13:17:36;;;;;;;28.57;25.90;;;;;;;;;;5053540;28;20409;-78
2021/11/18 13:20:18;;;;;;;27.07;24.53;;;;;;;;;;5053223;28;20474;-83
2021/11/18 13:22:47;;;;;;;28.13;25.30;;;;;;;;;;5053599;28;20418;-78
2021/11/18 13:25:16;;;;;;;26.70;23.67;;;;;;;;;;5053120;28;20447;-79
2021/11/18 13:27:47;;;;;;;24.10;22.10;;;;;;;;;;5053052;28;20436;-79
2021/11/18 13:30:26;;;;;;;28.90;25.80;;;;;;;;;;5053386;28;20455;-78
2021/11/18 13:32:55;;;;;;;24.20;21.97;;;;;;;;;;5053367;28;20421;-77
2021/11/18 13:35:25;;;;;;;23.80;21.63;;;;;;;;;;5052956;28;20420;-77
2021/11/18 13:38:03;;;;;;;29.07;23.67;;;;;;;;;;5052366;28;20420;-81
2021/11/18 13:40:31;;;;;;;25.20;23.07;;;;;;;;;;5052850;28;20472;-77
2021/11/18 13:43:08;;;;;;;26.00;23.43;;;;;;;;;;5052823;28;20541;-77
2021/11/18 13:45:36;;;;;;;26.70;23.90;;;;;;;;;;5052954;28;20420;-77
2021/11/18 13:48:05;;;;;;;25.83;23.40;;;;;;;;;;5052622;28;21003;-78
2021/11/18 13:50:35;;;;;;;25.57;23.20;;;;;;;;;;5053156;28;20789;-78
2021/11/18 13:53:05;;;;;;;25.57;22.90;;;;;;;;;;5053073;28;20424;-81
2021/11/18 13:55:34;;;;;;;27.13;24.33;;;;;;;;;;5051595;28;20442;-77
2021/11/18 13:58:10;;;;;;;28.27;25.30;;;;;;;;;;5052594;28;20452;-78
2021/11/18 14:00:40;;;;;;;26.90;24.00;;;;;;;;;;5052566;28;20457;-78
2021/11/18 14:03:09;;;;;;;27.73;25.07;;;;;;;;;;5052554;28;20470;-78
2021/11/18 14:05:39;;;;;;;27.00;24.40;;;;;;;;;;5052800;28;20786;-79
2021/11/18 14:08:09;;;;;;;29.03;26.20;;;;;;;;;;5052583;28;20797;-78
2021/11/18 14:10:38;;;;;;;29.70;25.90;;;;;;;;;;5052289;28;21008;-79
2021/11/18 14:13:06;;;;;;;26.87;23.37;;;;;;;;;;5052507;28;20775;-78
2021/11/18 14:15:36;;;;;;;34.57;24.20;;;;;;;;;;5052614;28;20470;-78
2021/11/18 14:18:14;;;;;;;28.10;25.10;;;;;;;;;;5052603;28;20519;-78
2021/11/18 14:20:51;;;;;;;28.40;25.30;;;;;;;;;;5057501;28;20459;-77
2021/11/18 14:23:20;;;;;;;42.07;24.50;;;;;;;;;;5072405;28;20904;-77
2021/11/18 14:26:00;;;;;;;26.83;24.30;;;;;;;;;;5072586;28;20442;-78
2021/11/18 14:28:35;;;;;;;26.13;23.17;;;;;;;;;;5072343;28;20419;-79
2021/11/18 14:31:03;;;;;;;26.30;24.00;;;;;;;;;;5072591;28;20440;-79
2021/11/18 14:33:40;;;;;;;26.27;24.03;;;;;;;;;;5072613;28;20453;-78